sensor_id;sensor_type;location;lat;lon;timestamp;pressure;altitude;pressure_sealevel;temperature;humidity
62051;BME280;48008;51.204;6.766;2023-03-23T00:00:47;99996.91;;;12.40;84.21
62051;BME280;48008;51.204;6.766;2023-03-23T00:03:13;99988.13;;;12.39;83.74
62051;BME280;48008;51.204;6.766;2023-03-23T00:05:39;99976.38;;;12.34;84.30
62051;BME280;48008;51.204;6.766;2023-03-23T00:08:07;99983.09;;;12.44;83.40
62051;BME280;48008;51.204;6.766;2023-03-23T00:10:35;99975.94;;;12.30;85.01
62051;BME280;48008;51.204;6.766;2023-03-23T00:13:02;99976.47;;;12.25;85.09
62051;BME280;48008;51.204;6.766;2023-03-23T00:15:28;99979.03;;;12.34;84.13
62051;BME280;48008;51.204;6.766;2023-03-23T00:18:00;99971.97;;;12.41;84.12
62051;BME280;48008;51.204;6.766;2023-03-23T00:20:31;99975.75;;;12.32;84.24
62051;BME280;48008;51.204;6.766;2023-03-23T00:23:06;99980.22;;;12.46;83.91
62051;BME280;48008;51.204;6.766;2023-03-23T00:25:32;99976.91;;;12.44;83.90
62051;BME280;48008;51.204;6.766;2023-03-23T00:27:58;99971.22;;;12.47;84.02
62051;BME280;48008;51.204;6.766;2023-03-23T00:30:25;99974.44;;;12.42;83.39
62051;BME280;48008;51.204;6.766;2023-03-23T00:32:51;99977.31;;;12.41;83.94
62051;BME280;48008;51.204;6.766;2023-03-23T00:35:17;99968.56;;;12.47;83.06
62051;BME280;48008;51.204;6.766;2023-03-23T00:37:43;99968.22;;;12.35;84.42
62051;BME280;48008;51.204;6.766;2023-03-23T00:40:10;99975.53;;;12.33;83.74
62051;BME280;48008;51.204;6.766;2023-03-23T00:42:36;99970.97;;;12.42;83.25
62051;BME280;48008;51.204;6.766;2023-03-23T00:45:05;99969.66;;;12.53;82.73
62051;BME280;48008;51.204;6.766;2023-03-23T00:47:37;99969.66;;;12.53;82.21
62051;BME280;48008;51.204;6.766;2023-03-23T00:50:04;99963.25;;;12.47;82.62
62051;BME280;48008;51.204;6.766;2023-03-23T00:52:30;99956.72;;;12.49;82.50
62051;BME280;48008;51.204;6.766;2023-03-23T00:54:57;99964.97;;;12.55;82.16
62051;BME280;48008;51.204;6.766;2023-03-23T00:57:24;99954.91;;;12.50;82.10
62051;BME280;48008;51.204;6.766;2023-03-23T00:59:51;99959.38;;;12.49;82.41
62051;BME280;48008;51.204;6.766;2023-03-23T01:02:16;99958.88;;;12.39;83.57
62051;BME280;48008;51.204;6.766;2023-03-23T01:04:43;99960.59;;;12.47;82.36
62051;BME280;48008;51.204;6.766;2023-03-23T01:07:11;99954.72;;;12.52;82.12
62051;BME280;48008;51.204;6.766;2023-03-23T01:09:39;99953.44;;;12.47;82.38
62051;BME280;48008;51.204;6.766;2023-03-23T01:12:06;99961.53;;;12.39;83.50
62051;BME280;48008;51.204;6.766;2023-03-23T01:14:32;99964.19;;;12.39;84.61
62051;BME280;48008;51.204;6.766;2023-03-23T01:16:58;99960.31;;;12.42;83.45
62051;BME280;48008;51.204;6.766;2023-03-23T01:19:24;99967.84;;;12.38;84.69
62051;BME280;48008;51.204;6.766;2023-03-23T01:21:51;99958.78;;;12.33;83.81
62051;BME280;48008;51.204;6.766;2023-03-23T01:24:17;99955.38;;;12.24;85.36
62051;BME280;48008;51.204;6.766;2023-03-23T01:26:42;99957.03;;;12.25;84.51
62051;BME280;48008;51.204;6.766;2023-03-23T01:29:08;99953.09;;;12.36;83.67
62051;BME280;48008;51.204;6.766;2023-03-23T01:31:34;99966.38;;;12.36;83.62
62051;BME280;48008;51.204;6.766;2023-03-23T01:34:02;99956.69;;;12.28;84.78
62051;BME280;48008;51.204;6.766;2023-03-23T01:36:29;99956.09;;;12.33;85.50
62051;BME280;48008;51.204;6.766;2023-03-23T01:39:01;99963.63;;;12.29;86.70
62051;BME280;48008;51.204;6.766;2023-03-23T01:41:31;99940.53;;;12.15;90.07
62051;BME280;48008;51.204;6.766;2023-03-23T01:44:02;99932.19;;;12.03;90.29
62051;BME280;48008;51.204;6.766;2023-03-23T01:46:35;99920.00;;;11.94;93.55
62051;BME280;48008;51.204;6.766;2023-03-23T01:49:07;99913.91;;;11.85;95.11
62051;BME280;48008;51.204;6.766;2023-03-23T01:51:40;99933.22;;;11.64;97.12
62051;BME280;48008;51.204;6.766;2023-03-23T01:54:09;99917.84;;;11.59;95.88
62051;BME280;48008;51.204;6.766;2023-03-23T01:56:41;99922.69;;;11.56;97.18
62051;BME280;48008;51.204;6.766;2023-03-23T01:59:12;99893.69;;;11.46;98.56
62051;BME280;48008;51.204;6.766;2023-03-23T02:01:42;99884.75;;;11.47;99.10
62051;BME280;48008;51.204;6.766;2023-03-23T02:04:13;99865.03;;;11.41;99.23
62051;BME280;48008;51.204;6.766;2023-03-23T02:06:41;99857.59;;;11.37;99.79
62051;BME280;48008;51.204;6.766;2023-03-23T02:09:13;99879.59;;;11.30;100.00
62051;BME280;48008;51.204;6.766;2023-03-23T02:11:45;99878.59;;;11.31;100.00
62051;BME280;48008;51.204;6.766;2023-03-23T02:14:11;99909.03;;;11.21;100.00
62051;BME280;48008;51.204;6.766;2023-03-23T02:22:48;99879.47;;;11.24;100.00
62051;BME280;48008;51.204;6.766;2023-03-23T02:28:16;99858.97;;;11.32;100.00
62051;BME280;48008;51.204;6.766;2023-03-23T02:33:55;99860.47;;;11.35;100.00
62051;BME280;48008;51.204;6.766;2023-03-23T02:36:44;99864.59;;;11.38;100.00
62051;BME280;48008;51.204;6.766;2023-03-23T02:39:20;99861.16;;;11.29;99.89
62051;BME280;48008;51.204;6.766;2023-03-23T02:41:54;99849.56;;;11.30;99.28
62051;BME280;48008;51.204;6.766;2023-03-23T02:44:23;99866.94;;;11.32;99.72
62051;BME280;48008;51.204;6.766;2023-03-23T02:46:51;99866.22;;;11.39;99.36
62051;BME280;48008;51.204;6.766;2023-03-23T02:49:19;99880.69;;;11.36;99.92
62051;BME280;48008;51.204;6.766;2023-03-23T02:51:47;99878.38;;;11.33;99.64
62051;BME280;48008;51.204;6.766;2023-03-23T02:54:15;99878.38;;;11.33;100.00
62051;BME280;48008;51.204;6.766;2023-03-23T02:56:43;99880.03;;;11.34;100.00
62051;BME280;48008;51.204;6.766;2023-03-23T02:59:17;99880.50;;;11.38;100.00
62051;BME280;48008;51.204;6.766;2023-03-23T03:01:48;99875.84;;;11.40;99.70
62051;BME280;48008;51.204;6.766;2023-03-23T03:04:19;99874.66;;;11.42;99.87
62051;BME280;48008;51.204;6.766;2023-03-23T03:07:09;99894.44;;;11.40;98.73
62051;BME280;48008;51.204;6.766;2023-03-23T03:09:59;99893.44;;;11.41;98.20
62051;BME280;48008;51.204;6.766;2023-03-23T03:12:51;99876.03;;;11.38;98.16
62051;BME280;48008;51.204;6.766;2023-03-23T03:18:07;99879.88;;;11.50;96.78
62051;BME280;48008;51.204;6.766;2023-03-23T03:20:45;99873.47;;;11.45;97.90
62051;BME280;48008;51.204;6.766;2023-03-23T03:23:14;99874.19;;;11.39;96.81
62051;BME280;48008;51.204;6.766;2023-03-23T03:25:43;99870.47;;;11.48;95.84
62051;BME280;48008;51.204;6.766;2023-03-23T03:28:15;99866.50;;;11.44;96.79
62051;BME280;48008;51.204;6.766;2023-03-23T03:30:45;99862.28;;;11.49;94.96
62051;BME280;48008;51.204;6.766;2023-03-23T03:33:12;99857.72;;;11.43;96.25
62051;BME280;48008;51.204;6.766;2023-03-23T03:35:41;99860.38;;;11.43;95.71
62051;BME280;48008;51.204;6.766;2023-03-23T03:38:09;99860.19;;;11.45;96.07
62051;BME280;48008;51.204;6.766;2023-03-23T03:40:35;99867.59;;;11.49;95.39
62051;BME280;48008;51.204;6.766;2023-03-23T03:43:02;99880.41;;;11.46;95.97
62051;BME280;48008;51.204;6.766;2023-03-23T03:45:29;99878.16;;;11.43;96.50
62051;BME280;48008;51.204;6.766;2023-03-23T03:47:55;99871.53;;;11.39;94.67
62051;BME280;48008;51.204;6.766;2023-03-23T03:50:21;99879.78;;;11.44;94.43
62051;BME280;48008;51.204;6.766;2023-03-23T03:52:47;99866.97;;;11.47;94.37
62051;BME280;48008;51.204;6.766;2023-03-23T03:55:13;99862.03;;;11.44;93.97
62051;BME280;48008;51.204;6.766;2023-03-23T03:57:42;99863.22;;;11.57;93.43
62051;BME280;48008;51.204;6.766;2023-03-23T04:00:30;99861.59;;;11.56;93.28
62051;BME280;48008;51.204;6.766;2023-03-23T04:02:56;99874.59;;;11.50;92.65
62051;BME280;48008;51.204;6.766;2023-03-23T04:05:42;99874.13;;;11.62;92.13
62051;BME280;48008;51.204;6.766;2023-03-23T04:08:11;99862.13;;;11.51;92.71
62051;BME280;48008;51.204;6.766;2023-03-23T04:10:37;99860.66;;;11.48;94.09
62051;BME280;48008;51.204;6.766;2023-03-23T04:13:03;99866.69;;;11.42;94.31
62051;BME280;48008;51.204;6.766;2023-03-23T04:15:49;99855.69;;;11.45;94.62
62051;BME280;48008;51.204;6.766;2023-03-23T04:18:17;99856.81;;;11.51;93.13
62051;BME280;48008;51.204;6.766;2023-03-23T04:20:47;99860.09;;;11.53;92.50
62051;BME280;48008;51.204;6.766;2023-03-23T04:23:17;99863.44;;;11.55;93.12
62051;BME280;48008;51.204;6.766;2023-03-23T04:25:46;99869.63;;;11.62;91.81
62051;BME280;48008;51.204;6.766;2023-03-23T04:28:14;99865.25;;;11.55;91.85
62051;BME280;48008;51.204;6.766;2023-03-23T04:30:56;99874.22;;;11.53;92.99
62051;BME280;48008;51.204;6.766;2023-03-23T04:33:24;99870.09;;;11.51;93.14
62051;BME280;48008;51.204;6.766;2023-03-23T04:35:54;99872.22;;;11.56;91.79
62051;BME280;48008;51.204;6.766;2023-03-23T04:38:30;99885.22;;;11.65;90.31
62051;BME280;48008;51.204;6.766;2023-03-23T04:41:03;99892.25;;;11.58;91.16
62051;BME280;48008;51.204;6.766;2023-03-23T04:43:44;99890.72;;;11.64;90.13
62051;BME280;48008;51.204;6.766;2023-03-23T04:46:20;99894.47;;;11.69;90.42
62051;BME280;48008;51.204;6.766;2023-03-23T04:48:48;99894.69;;;11.68;90.35
62051;BME280;48008;51.204;6.766;2023-03-23T04:51:22;99897.78;;;11.71;90.63
62051;BME280;48008;51.204;6.766;2023-03-23T04:53:52;99903.09;;;11.86;89.21
62051;BME280;48008;51.204;6.766;2023-03-23T04:56:17;99893.84;;;11.82;89.45
62051;BME280;48008;51.204;6.766;2023-03-23T04:58:45;99896.03;;;11.79;88.84
62051;BME280;48008;51.204;6.766;2023-03-23T05:01:24;99888.34;;;11.84;87.68
62051;BME280;48008;51.204;6.766;2023-03-23T05:04:05;99895.50;;;11.83;88.23
62051;BME280;48008;51.204;6.766;2023-03-23T05:06:32;99891.56;;;11.79;88.55
62051;BME280;48008;51.204;6.766;2023-03-23T05:09:02;99894.41;;;11.78;89.78
62051;BME280;48008;51.204;6.766;2023-03-23T05:11:29;99892.97;;;11.90;87.74
62051;BME280;48008;51.204;6.766;2023-03-23T05:13:55;99909.59;;;11.84;87.89
62051;BME280;48008;51.204;6.766;2023-03-23T05:16:22;99903.94;;;11.87;87.01
62051;BME280;48008;51.204;6.766;2023-03-23T05:18:47;99906.09;;;11.92;86.81
62051;BME280;48008;51.204;6.766;2023-03-23T05:21:16;99900.75;;;11.92;87.97
62051;BME280;48008;51.204;6.766;2023-03-23T05:23:48;99896.69;;;11.81;89.27
62051;BME280;48008;51.204;6.766;2023-03-23T05:26:22;99908.44;;;11.86;88.33
62051;BME280;48008;51.204;6.766;2023-03-23T05:28:51;99902.22;;;11.94;86.82
62051;BME280;48008;51.204;6.766;2023-03-23T05:31:23;99909.84;;;11.97;87.09
62051;BME280;48008;51.204;6.766;2023-03-23T05:33:51;99907.19;;;11.97;86.42
62051;BME280;48008;51.204;6.766;2023-03-23T05:36:36;99901.66;;;11.99;85.87
62051;BME280;48008;51.204;6.766;2023-03-23T05:39:22;99914.31;;;11.97;87.10
62051;BME280;48008;51.204;6.766;2023-03-23T05:42:03;99915.97;;;11.98;86.76
62051;BME280;48008;51.204;6.766;2023-03-23T05:44:40;99908.53;;;11.93;86.57
62051;BME280;48008;51.204;6.766;2023-03-23T05:47:07;99917.34;;;11.94;86.52
62051;BME280;48008;51.204;6.766;2023-03-23T05:49:36;99913.31;;;11.98;85.41
62051;BME280;48008;51.204;6.766;2023-03-23T05:52:04;99914.75;;;12.00;85.48
62051;BME280;48008;51.204;6.766;2023-03-23T05:54:30;99916.16;;;11.96;85.59
62051;BME280;48008;51.204;6.766;2023-03-23T05:56:56;99915.50;;;11.94;85.70
62051;BME280;48008;51.204;6.766;2023-03-23T05:59:35;99929.03;;;11.84;85.15
62051;BME280;48008;51.204;6.766;2023-03-23T06:02:01;99917.59;;;11.99;84.95
62051;BME280;48008;51.204;6.766;2023-03-23T06:04:27;99912.03;;;11.94;85.45
62051;BME280;48008;51.204;6.766;2023-03-23T06:07:04;99921.00;;;11.93;84.80
62051;BME280;48008;51.204;6.766;2023-03-23T06:09:30;99926.97;;;11.95;83.99
62051;BME280;48008;51.204;6.766;2023-03-23T06:12:15;99929.25;;;11.98;84.03
62051;BME280;48008;51.204;6.766;2023-03-23T06:15:01;99941.09;;;11.95;84.19
62051;BME280;48008;51.204;6.766;2023-03-23T06:17:47;99934.13;;;11.94;83.66
62051;BME280;48008;51.204;6.766;2023-03-23T06:20:12;99936.22;;;11.99;84.10
62051;BME280;48008;51.204;6.766;2023-03-23T06:22:41;99942.84;;;12.03;83.64
62051;BME280;48008;51.204;6.766;2023-03-23T06:25:11;99942.38;;;11.99;83.63
62051;BME280;48008;51.204;6.766;2023-03-23T06:27:40;99943.75;;;12.10;83.06
62051;BME280;48008;51.204;6.766;2023-03-23T06:30:08;99944.09;;;12.07;82.60
62051;BME280;48008;51.204;6.766;2023-03-23T06:32:34;99945.50;;;12.03;82.18
62051;BME280;48008;51.204;6.766;2023-03-23T06:35:03;99947.13;;;12.04;82.37
62051;BME280;48008;51.204;6.766;2023-03-23T06:37:49;99947.59;;;12.07;82.98
62051;BME280;48008;51.204;6.766;2023-03-23T06:40:20;99950.97;;;12.16;82.02
62051;BME280;48008;51.204;6.766;2023-03-23T06:42:54;99945.50;;;12.03;82.13
62051;BME280;48008;51.204;6.766;2023-03-23T06:45:40;99952.91;;;12.07;81.50
62051;BME280;48008;51.204;6.766;2023-03-23T06:48:26;99951.09;;;12.08;81.81
62051;BME280;48008;51.204;6.766;2023-03-23T06:50:53;99953.47;;;12.03;82.39
62051;BME280;48008;51.204;6.766;2023-03-23T06:53:20;99955.19;;;12.10;81.64
62051;BME280;48008;51.204;6.766;2023-03-23T06:55:48;99960.34;;;12.12;81.22
62051;BME280;48008;51.204;6.766;2023-03-23T06:58:14;99965.94;;;12.17;80.80
62051;BME280;48008;51.204;6.766;2023-03-23T07:00:40;99964.00;;;12.26;80.50
62051;BME280;48008;51.204;6.766;2023-03-23T07:03:08;99967.28;;;12.13;81.12
62051;BME280;48008;51.204;6.766;2023-03-23T07:05:37;99968.03;;;12.22;80.52
62051;BME280;48008;51.204;6.766;2023-03-23T07:08:04;99968.03;;;12.22;81.13
62051;BME280;48008;51.204;6.766;2023-03-23T07:10:53;99962.91;;;12.20;80.64
62051;BME280;48008;51.204;6.766;2023-03-23T07:13:24;99971.25;;;12.17;80.49
62051;BME280;48008;51.204;6.766;2023-03-23T07:15:55;99965.09;;;12.17;81.49
62051;BME280;48008;51.204;6.766;2023-03-23T07:18:21;99977.09;;;12.27;80.45
62051;BME280;48008;51.204;6.766;2023-03-23T07:20:49;99965.31;;;12.15;82.08
62051;BME280;48008;51.204;6.766;2023-03-23T07:23:18;99971.31;;;12.24;80.93
62051;BME280;48008;51.204;6.766;2023-03-23T07:25:50;99970.97;;;12.27;81.37
62051;BME280;48008;51.204;6.766;2023-03-23T07:28:21;99970.63;;;12.30;80.77
62051;BME280;48008;51.204;6.766;2023-03-23T07:30:48;99970.44;;;12.32;81.63
62051;BME280;48008;51.204;6.766;2023-03-23T07:33:15;99974.25;;;12.29;80.15
62051;BME280;48008;51.204;6.766;2023-03-23T07:35:41;99970.44;;;12.32;79.92
62051;BME280;48008;51.204;6.766;2023-03-23T07:38:11;99969.31;;;12.41;79.44
62051;BME280;48008;51.204;6.766;2023-03-23T07:40:38;99966.28;;;12.29;79.33
62051;BME280;48008;51.204;6.766;2023-03-23T07:43:10;99971.88;;;12.34;79.33
62051;BME280;48008;51.204;6.766;2023-03-23T07:45:55;99969.22;;;12.34;79.38
62051;BME280;48008;51.204;6.766;2023-03-23T07:48:26;99975.75;;;12.46;78.56
62051;BME280;48008;51.204;6.766;2023-03-23T07:50:53;99968.22;;;12.50;77.85
62051;BME280;48008;51.204;6.766;2023-03-23T07:53:20;99971.22;;;12.47;77.49
62051;BME280;48008;51.204;6.766;2023-03-23T07:55:55;99979.84;;;12.49;77.42
62051;BME280;48008;51.204;6.766;2023-03-23T07:58:41;99970.47;;;12.53;76.67
62051;BME280;48008;51.204;6.766;2023-03-23T08:01:07;99982.44;;;12.57;77.27
62051;BME280;48008;51.204;6.766;2023-03-23T08:03:35;99971.47;;;12.67;76.45
62051;BME280;48008;51.204;6.766;2023-03-23T08:06:16;99986.53;;;12.60;75.83
62051;BME280;48008;51.204;6.766;2023-03-23T08:09:02;99988.19;;;12.61;76.75
62051;BME280;48008;51.204;6.766;2023-03-23T08:11:52;99979.56;;;12.74;75.43
62051;BME280;48008;51.204;6.766;2023-03-23T08:14:38;99975.88;;;12.75;74.95
62051;BME280;48008;51.204;6.766;2023-03-23T08:17:25;99983.34;;;12.86;75.01
62051;BME280;48008;51.204;6.766;2023-03-23T08:20:11;99987.34;;;12.75;75.55
62051;BME280;48008;51.204;6.766;2023-03-23T08:22:58;99987.22;;;12.83;75.60
62051;BME280;48008;51.204;6.766;2023-03-23T08:25:37;99988.13;;;12.91;73.86
62051;BME280;48008;51.204;6.766;2023-03-23T08:28:18;99988.03;;;12.84;73.56
62051;BME280;48008;51.204;6.766;2023-03-23T08:31:07;99987.31;;;12.90;75.19
62051;BME280;48008;51.204;6.766;2023-03-23T08:33:46;99987.50;;;12.89;74.85
62051;BME280;48008;51.204;6.766;2023-03-23T08:36:23;99987.38;;;12.97;74.30
62051;BME280;48008;51.204;6.766;2023-03-23T08:39:00;99995.81;;;13.00;72.96
62051;BME280;48008;51.204;6.766;2023-03-23T08:41:46;99994.81;;;13.01;74.17
62051;BME280;48008;51.204;6.766;2023-03-23T08:44:32;100006.34;;;13.09;73.53
62051;BME280;48008;51.204;6.766;2023-03-23T08:47:11;99998.00;;;13.12;73.05
62051;BME280;48008;51.204;6.766;2023-03-23T08:49:50;100009.34;;;13.20;72.35
62051;BME280;48008;51.204;6.766;2023-03-23T08:52:38;100012.06;;;13.27;72.21
62051;BME280;48008;51.204;6.766;2023-03-23T08:55:19;100010.38;;;13.19;72.08
62051;BME280;48008;51.204;6.766;2023-03-23T08:57:55;100011.31;;;13.12;72.72
62051;BME280;48008;51.204;6.766;2023-03-23T09:00:40;100012.50;;;13.09;73.72
62051;BME280;48008;51.204;6.766;2023-03-23T09:03:16;100010.72;;;13.16;72.89
62051;BME280;48008;51.204;6.766;2023-03-23T09:06:00;100012.75;;;13.14;71.52
62051;BME280;48008;51.204;6.766;2023-03-23T09:08:35;100007.00;;;13.11;71.90
62051;BME280;48008;51.204;6.766;2023-03-23T09:11:03;100022.69;;;13.05;72.65
62051;BME280;48008;51.204;6.766;2023-03-23T09:13:29;100004.41;;;13.17;72.64
62051;BME280;48008;51.204;6.766;2023-03-23T09:15:55;100010.22;;;13.28;71.54
62051;BME280;48008;51.204;6.766;2023-03-23T09:18:21;99995.28;;;13.27;71.44
62051;BME280;48008;51.204;6.766;2023-03-23T09:20:49;99996.72;;;13.29;71.58
62051;BME280;48008;51.204;6.766;2023-03-23T09:23:17;99996.00;;;13.35;71.53
62051;BME280;48008;51.204;6.766;2023-03-23T09:25:43;100003.63;;;13.23;71.56
62051;BME280;48008;51.204;6.766;2023-03-23T09:28:10;100025.22;;;13.29;70.82
62051;BME280;48008;51.204;6.766;2023-03-23T09:30:36;100015.38;;;13.29;70.94
62051;BME280;48008;51.204;6.766;2023-03-23T09:33:04;100015.88;;;13.18;71.72
62051;BME280;48008;51.204;6.766;2023-03-23T09:35:32;100027.47;;;13.10;71.46
62051;BME280;48008;51.204;6.766;2023-03-23T09:37:59;100030.94;;;13.11;70.64
62051;BME280;48008;51.204;6.766;2023-03-23T09:40:33;100021.56;;;13.15;71.10
62051;BME280;48008;51.204;6.766;2023-03-23T09:43:22;100029.50;;;13.30;70.34
62051;BME280;48008;51.204;6.766;2023-03-23T09:46:20;100025.53;;;13.19;70.13
62051;BME280;48008;51.204;6.766;2023-03-23T09:48:55;100023.69;;;13.19;69.74
62051;BME280;48008;51.204;6.766;2023-03-23T09:51:34;100030.91;;;13.25;69.56
62051;BME280;48008;51.204;6.766;2023-03-23T09:54:11;100035.53;;;13.32;69.57
62051;BME280;48008;51.204;6.766;2023-03-23T09:56:39;100028.53;;;13.31;70.40
62051;BME280;48008;51.204;6.766;2023-03-23T09:59:14;100025.22;;;13.29;69.83
62051;BME280;48008;51.204;6.766;2023-03-23T10:01:46;100040.75;;;13.25;70.22
62051;BME280;48008;51.204;6.766;2023-03-23T10:04:44;100054.28;;;13.09;71.56
62051;BME280;48008;51.204;6.766;2023-03-23T10:07:08;100076.63;;;12.78;74.36
62051;BME280;48008;51.204;6.766;2023-03-23T10:09:35;100075.06;;;12.39;81.58
62051;BME280;48008;51.204;6.766;2023-03-23T10:15:04;100079.22;;;11.57;90.02
62051;BME280;48008;51.204;6.766;2023-03-23T10:17:40;100093.13;;;11.36;93.08
62051;BME280;48008;51.204;6.766;2023-03-23T10:23:23;100095.69;;;10.90;94.95
62051;BME280;48008;51.204;6.766;2023-03-23T10:25:55;100103.34;;;10.76;97.68
62051;BME280;48008;51.204;6.766;2023-03-23T10:28:43;100094.38;;;10.78;95.29
62051;BME280;48008;51.204;6.766;2023-03-23T10:31:13;100098.22;;;10.67;94.59
62051;BME280;48008;51.204;6.766;2023-03-23T10:33:45;100101.41;;;10.54;96.28
62051;BME280;48008;51.204;6.766;2023-03-23T10:36:34;100095.13;;;10.38;99.72
62051;BME280;48008;51.204;6.766;2023-03-23T10:39:21;100106.91;;;10.36;99.31
62051;BME280;48008;51.204;6.766;2023-03-23T10:41:48;100094.63;;;10.35;99.83
62051;BME280;48008;51.204;6.766;2023-03-23T10:44:19;100099.94;;;10.27;100.00
62051;BME280;48008;51.204;6.766;2023-03-23T10:46:53;100089.50;;;10.25;100.00
62051;BME280;48008;51.204;6.766;2023-03-23T10:49:26;100098.28;;;10.17;100.00
62051;BME280;48008;51.204;6.766;2023-03-23T10:52:18;100097.47;;;10.17;100.00
62051;BME280;48008;51.204;6.766;2023-03-23T10:54:57;100099.28;;;10.25;100.00
62051;BME280;48008;51.204;6.766;2023-03-23T10:57:26;100094.81;;;10.25;100.00
62051;BME280;48008;51.204;6.766;2023-03-23T11:00:00;100095.31;;;10.12;100.00
62051;BME280;48008;51.204;6.766;2023-03-23T11:02:35;100101.94;;;10.16;100.00
62051;BME280;48008;51.204;6.766;2023-03-23T11:05:06;100097.63;;;10.24;100.00
62051;BME280;48008;51.204;6.766;2023-03-23T11:07:34;100100.31;;;10.32;100.00
62051;BME280;48008;51.204;6.766;2023-03-23T11:10:15;100107.72;;;10.20;100.00
62051;BME280;48008;51.204;6.766;2023-03-23T11:12:44;100105.91;;;10.29;100.00
62051;BME280;48008;51.204;6.766;2023-03-23T11:15:23;100100.94;;;10.17;100.00
62051;BME280;48008;51.204;6.766;2023-03-23T11:18:09;100102.59;;;10.18;100.00
62051;BME280;48008;51.204;6.766;2023-03-23T11:20:37;100112.53;;;10.25;100.00
62051;BME280;48008;51.204;6.766;2023-03-23T11:23:13;100102.75;;;10.42;100.00
62051;BME280;48008;51.204;6.766;2023-03-23T11:26:09;100108.72;;;10.44;100.00
62051;BME280;48008;51.204;6.766;2023-03-23T11:28:42;100102.09;;;10.23;100.00
62051;BME280;48008;51.204;6.766;2023-03-23T11:31:08;100093.31;;;10.31;100.00
62051;BME280;48008;51.204;6.766;2023-03-23T11:33:47;100098.28;;;10.17;100.00
62051;BME280;48008;51.204;6.766;2023-03-23T11:36:13;100101.41;;;10.29;100.00
62051;BME280;48008;51.204;6.766;2023-03-23T11:38:40;100094.63;;;10.35;100.00
62051;BME280;48008;51.204;6.766;2023-03-23T11:41:11;100100.94;;;10.50;100.00
62051;BME280;48008;51.204;6.766;2023-03-23T11:43:40;100089.66;;;10.48;100.00
62051;BME280;48008;51.204;6.766;2023-03-23T11:46:18;100092.72;;;10.76;100.00
62051;BME280;48008;51.204;6.766;2023-03-23T11:48:57;100094.22;;;10.79;100.00
62051;BME280;48008;51.204;6.766;2023-03-23T11:51:46;100083.22;;;10.90;100.00
62051;BME280;48008;51.204;6.766;2023-03-23T11:56:59;100093.28;;;11.11;100.00
62051;BME280;48008;51.204;6.766;2023-03-23T11:59:29;100103.09;;;10.94;100.00
62051;BME280;48008;51.204;6.766;2023-03-23T12:02:21;100100.06;;;11.06;100.00
62051;BME280;48008;51.204;6.766;2023-03-23T12:11:01;100093.19;;;12.20;100.00
62051;BME280;48008;51.204;6.766;2023-03-23T12:20:00;100086.06;;;12.80;96.34
62051;BME280;48008;51.204;6.766;2023-03-23T12:22:51;100093.13;;;12.58;95.08
62051;BME280;48008;51.204;6.766;2023-03-23T12:29:03;100084.81;;;12.08;98.79
62051;BME280;48008;51.204;6.766;2023-03-23T12:31:42;100098.75;;;11.87;100.00
62051;BME280;48008;51.204;6.766;2023-03-23T12:34:36;100106.06;;;11.94;100.00
62051;BME280;48008;51.204;6.766;2023-03-23T12:40:23;100096.16;;;11.79;100.00
62051;BME280;48008;51.204;6.766;2023-03-23T12:43:01;100085.63;;;11.86;100.00
62051;BME280;48008;51.204;6.766;2023-03-23T12:48:23;100089.13;;;14.65;91.47
62051;BME280;48008;51.204;6.766;2023-03-23T12:51:10;100089.94;;;15.75;82.57
62051;BME280;48008;51.204;6.766;2023-03-23T12:56:36;100091.31;;;14.89;84.49
62051;BME280;48008;51.204;6.766;2023-03-23T12:59:17;100094.41;;;14.30;88.41
62051;BME280;48008;51.204;6.766;2023-03-23T13:01:51;100089.22;;;14.21;90.81
62051;BME280;48008;51.204;6.766;2023-03-23T13:04:23;100077.41;;;13.81;91.50
62051;BME280;48008;51.204;6.766;2023-03-23T13:06:51;100081.78;;;13.67;93.62
62051;BME280;48008;51.204;6.766;2023-03-23T13:09:36;100076.38;;;13.24;92.30
62051;BME280;48008;51.204;6.766;2023-03-23T13:12:04;100067.91;;;12.99;94.67
62051;BME280;48008;51.204;6.766;2023-03-23T13:20:37;100051.78;;;12.56;99.14
62051;BME280;48008;51.204;6.766;2023-03-23T13:23:11;100043.88;;;12.47;98.91
62051;BME280;48008;51.204;6.766;2023-03-23T13:26:02;100045.63;;;12.40;100.00
62051;BME280;48008;51.204;6.766;2023-03-23T13:28:32;100052.41;;;12.43;100.00
62051;BME280;48008;51.204;6.766;2023-03-23T13:31:02;100054.78;;;12.53;100.00
62051;BME280;48008;51.204;6.766;2023-03-23T13:33:32;100054.25;;;12.57;100.00
62051;BME280;48008;51.204;6.766;2023-03-23T13:36:05;100061.97;;;12.37;100.00
62051;BME280;48008;51.204;6.766;2023-03-23T13:38:33;100071.94;;;12.35;100.00
62051;BME280;48008;51.204;6.766;2023-03-23T13:41:08;100070.94;;;12.36;100.00
62051;BME280;48008;51.204;6.766;2023-03-23T13:43:36;100069.88;;;12.22;100.00
62051;BME280;48008;51.204;6.766;2023-03-23T13:46:25;100077.97;;;12.29;100.00
62051;BME280;48008;51.204;6.766;2023-03-23T13:51:36;100084.59;;;12.33;100.00
62051;BME280;48008;51.204;6.766;2023-03-23T13:54:14;100090.00;;;12.40;100.00
62051;BME280;48008;51.204;6.766;2023-03-23T13:56:56;100099.44;;;12.42;100.00
62051;BME280;48008;51.204;6.766;2023-03-23T13:59:33;100092.41;;;12.49;100.00
62051;BME280;48008;51.204;6.766;2023-03-23T14:02:28;100090.88;;;12.55;100.00
62051;BME280;48008;51.204;6.766;2023-03-23T14:04:56;100087.28;;;12.63;100.00
62051;BME280;48008;51.204;6.766;2023-03-23T14:07:22;100097.56;;;12.81;100.00
62051;BME280;48008;51.204;6.766;2023-03-23T14:09:50;100087.47;;;12.76;100.00
62051;BME280;48008;51.204;6.766;2023-03-23T14:12:20;100084.59;;;12.93;100.00
62051;BME280;48008;51.204;6.766;2023-03-23T14:14:50;100069.91;;;12.97;97.96
62051;BME280;48008;51.204;6.766;2023-03-23T14:17:19;100081.03;;;13.52;94.49
62051;BME280;48008;51.204;6.766;2023-03-23T14:19:50;100071.88;;;13.82;90.84
62051;BME280;48008;51.204;6.766;2023-03-23T14:22:33;100076.41;;;14.10;86.02